createdAt,value
2022-10-03T00:02:04.936Z,5.75
2022-10-03T00:04:41.350Z,5.53
2022-10-03T00:07:16.569Z,6.72
2022-10-03T00:09:56.389Z,6.38
2022-10-03T00:12:47.298Z,6.25
2022-10-03T00:15:21.968Z,6.45
2022-10-03T00:17:57.494Z,6.15
2022-10-03T00:20:36.809Z,6.28
2022-10-03T00:23:08.760Z,5.30
2022-10-03T00:25:45.050Z,5.32
2022-10-03T00:28:19.099Z,5.53
2022-10-03T00:30:57.271Z,4.35
2022-10-03T00:33:32.021Z,4.95
2022-10-03T00:36:04.306Z,4.10
2022-10-03T00:38:39.622Z,4.20
2022-10-03T00:41:25.243Z,4.55
2022-10-03T00:44:10.008Z,5.80
2022-10-03T00:46:45.486Z,3.78
2022-10-03T00:49:22.426Z,4.03
2022-10-03T00:51:56.886Z,4.22
2022-10-03T00:54:33.232Z,5.18
2022-10-03T00:57:10.377Z,5.13
2022-10-03T00:59:47.965Z,4.47
2022-10-03T01:02:26.409Z,5.15
2022-10-03T01:04:59.781Z,4.55
2022-10-03T01:07:39.285Z,6.82
2022-10-03T01:10:14.034Z,6.90
2022-10-03T01:12:53.573Z,4.03
2022-10-03T01:15:26.505Z,3.90
2022-10-03T01:18:02.526Z,4.50
2022-10-03T01:20:34.301Z,5.30
2022-10-03T01:23:16.842Z,5.68
2022-10-03T01:25:52.701Z,5.40
2022-10-03T01:28:48.869Z,6.35
2022-10-03T01:31:21.038Z,6.15
2022-10-03T01:33:54.165Z,6.25
2022-10-03T01:36:26.569Z,6.65
2022-10-03T01:38:57.876Z,6.28
2022-10-03T01:41:32.599Z,6.40
2022-10-03T01:44:04.371Z,8.10
2022-10-03T01:46:37.589Z,6.80
2022-10-03T01:49:10.314Z,6.80
2022-10-03T01:51:45.374Z,6.50
2022-10-03T01:54:18.492Z,7.18
2022-10-03T01:56:51.205Z,8.02
2022-10-03T01:59:24.389Z,7.32
2022-10-03T02:01:55.581Z,7.50
2022-10-03T02:04:33.705Z,7.10
2022-10-03T02:07:05.280Z,7.03
2022-10-03T02:09:37.949Z,6.88
2022-10-03T02:12:10.510Z,6.43
2022-10-03T02:14:56.643Z,6.72
2022-10-03T02:17:30.694Z,7.10
2022-10-03T02:20:07.857Z,7.43
2022-10-03T02:22:40.049Z,7.97
2022-10-03T02:25:20.932Z,7.45
2022-10-03T02:28:08.486Z,6.60
2022-10-03T02:30:42.014Z,7.28
2022-10-03T02:33:27.978Z,6.90
2022-10-03T02:36:11.215Z,7.65
2022-10-03T02:38:49.536Z,7.20
2022-10-03T02:41:32.844Z,8.15
2022-10-03T02:44:18.967Z,7.72
2022-10-03T02:47:05.884Z,7.60
2022-10-03T02:49:48.353Z,6.88
2022-10-03T02:52:34.610Z,7.25
2022-10-03T02:55:17.458Z,6.75
2022-10-03T02:58:11.503Z,6.85
2022-10-03T03:00:56.735Z,7.45
2022-10-03T03:03:44.058Z,7.13
2022-10-03T03:06:24.154Z,6.35
2022-10-03T03:09:05.447Z,6.38
2022-10-03T03:11:43.647Z,7.53
2022-10-03T03:14:18.833Z,6.97
2022-10-03T03:16:57.809Z,7.43
2022-10-03T03:19:39.766Z,7.18
2022-10-03T03:22:16.512Z,7.45
2022-10-03T03:24:55.222Z,7.82
2022-10-03T03:27:36.864Z,6.88
2022-10-03T03:30:08.808Z,7.60
2022-10-03T03:32:44.159Z,6.50
2022-10-03T03:35:19.757Z,6.90
2022-10-03T03:37:53.559Z,7.70
2022-10-03T03:43:05.282Z,7.07
2022-10-03T03:45:42.088Z,7.10
2022-10-03T03:48:22.648Z,6.47
2022-10-03T03:50:57.273Z,6.50
2022-10-03T03:53:43.313Z,7.35
2022-10-03T03:56:32.513Z,6.88
2022-10-03T03:59:06.784Z,5.80
2022-10-03T04:01:43.200Z,5.47
2022-10-03T04:04:17.432Z,6.03
2022-10-03T04:06:56.258Z,6.38
2022-10-03T04:09:47.355Z,5.78
2022-10-03T04:12:22.016Z,7.00
2022-10-03T04:14:57.768Z,6.47
2022-10-03T04:17:55.997Z,5.55
2022-10-03T04:20:32.271Z,5.60
2022-10-03T04:23:08.004Z,5.28
2022-10-03T04:25:47.529Z,7.05
2022-10-03T04:28:26.803Z,5.90
2022-10-03T04:31:05.725Z,6.38
2022-10-03T04:33:41.862Z,6.53
2022-10-03T04:36:31.209Z,6.13
2022-10-03T04:39:05.530Z,5.95
2022-10-03T04:41:43.072Z,7.10
2022-10-03T04:44:18.643Z,5.47
2022-10-03T04:46:53.005Z,5.97
2022-10-03T04:49:26.746Z,7.20
2022-10-03T04:51:59.467Z,6.80
2022-10-03T04:54:31.332Z,6.35
2022-10-03T04:57:02.669Z,7.22
2022-10-03T04:59:36.310Z,9.20
2022-10-03T05:02:12.834Z,7.80
2022-10-03T05:04:46.319Z,7.60
2022-10-03T05:07:19.104Z,8.40
2022-10-03T05:09:51.857Z,7.50
2022-10-03T05:12:28.925Z,7.75
2022-10-03T05:15:05.696Z,5.25
2022-10-03T05:17:43.665Z,5.10
2022-10-03T05:20:19.150Z,6.38
2022-10-03T05:22:52.563Z,6.18
2022-10-03T05:25:25.926Z,6.63
2022-10-03T05:27:56.581Z,6.82
2022-10-03T05:30:35.544Z,7.35
2022-10-03T05:33:09.051Z,7.82
2022-10-03T05:35:45.899Z,8.00
2022-10-03T05:38:38.658Z,8.90
2022-10-03T05:41:11.417Z,8.82
2022-10-03T05:43:48.753Z,8.90
2022-10-03T05:46:25.254Z,8.93
2022-10-03T05:49:02.128Z,9.25
2022-10-03T05:51:48.794Z,8.85
2022-10-03T05:54:31.534Z,8.80
2022-10-03T05:57:19.668Z,9.00
2022-10-03T06:00:08.861Z,8.82
2022-10-03T06:02:58.510Z,10.32
2022-10-03T06:05:33.015Z,10.80
2022-10-03T06:08:19.456Z,10.63
2022-10-03T06:10:53.661Z,10.23
2022-10-03T06:13:26.814Z,9.70
2022-10-03T06:16:04.595Z,10.90
2022-10-03T06:18:48.100Z,11.18
2022-10-03T06:21:36.717Z,10.00
2022-10-03T06:24:34.167Z,11.20
2022-10-03T06:27:25.340Z,11.23
2022-10-03T06:30:13.104Z,10.93
2022-10-03T06:33:02.652Z,10.73
2022-10-03T06:36:04.691Z,11.75
2022-10-03T06:38:53.564Z,12.18
2022-10-03T06:41:50.250Z,14.25
2022-10-03T06:44:24.873Z,12.48
2022-10-03T06:47:08.257Z,14.50
2022-10-03T06:49:56.832Z,12.05
2022-10-03T06:52:44.626Z,10.85
2022-10-03T06:55:20.492Z,9.60
2022-10-03T06:57:58.531Z,8.05
2022-10-03T07:00:36.274Z,7.13
2022-10-03T07:03:23.627Z,6.88
2022-10-03T07:06:10.703Z,6.68
2022-10-03T07:08:58.324Z,6.80
2022-10-03T07:11:36.433Z,7.72
2022-10-03T07:14:25.522Z,6.88
2022-10-03T07:17:16.281Z,7.18
2022-10-03T07:19:57.840Z,9.98
2022-10-03T07:22:52.949Z,11.20
2022-10-03T07:25:34.023Z,10.25
2022-10-03T07:28:11.457Z,8.50
2022-10-03T07:30:52.498Z,8.55
2022-10-03T07:33:42.050Z,8.50
2022-10-03T07:36:54.833Z,7.85
2022-10-03T07:39:40.847Z,8.55
2022-10-03T07:42:29.881Z,8.30
2022-10-03T07:45:26.206Z,8.65
2022-10-03T07:48:13.363Z,9.07
2022-10-03T07:50:52.476Z,9.63
2022-10-03T07:53:37.174Z,9.85
2022-10-03T07:56:11.819Z,10.63
2022-10-03T07:58:55.257Z,9.70
2022-10-03T08:01:37.725Z,11.07
2022-10-03T08:04:20.042Z,11.40
2022-10-03T08:06:52.334Z,11.55
2022-10-03T08:09:39.183Z,11.48
2022-10-03T08:12:28.836Z,10.85
2022-10-03T08:15:05.810Z,10.60
2022-10-03T08:17:53.631Z,10.35
2022-10-03T08:20:37.004Z,10.93
2022-10-03T08:23:19.049Z,11.15
2022-10-03T08:26:02.745Z,11.55
2022-10-03T08:29:02.914Z,11.07
2022-10-03T08:31:52.795Z,11.55
2022-10-03T08:34:50.780Z,11.77
2022-10-03T08:37:40.978Z,14.30
2022-10-03T08:40:33.323Z,12.40
2022-10-03T08:43:25.797Z,11.63
2022-10-03T08:46:15.815Z,11.10
2022-10-03T08:49:04.811Z,36.38
2022-10-03T08:51:54.795Z,14.07
2022-10-03T08:54:54.384Z,12.65
2022-10-03T08:57:36.578Z,10.85
2022-10-03T09:00:08.782Z,12.50
2022-10-03T09:03:33.431Z,10.25
2022-10-03T09:06:24.957Z,9.32
2022-10-03T09:09:22.071Z,9.30
2022-10-03T09:12:14.527Z,8.90
2022-10-03T09:15:00.636Z,9.27
2022-10-03T09:17:47.013Z,8.63
2022-10-03T09:20:22.566Z,8.82
2022-10-03T09:23:02.407Z,9.05
2022-10-03T09:25:41.997Z,8.43
2022-10-03T09:28:34.420Z,8.18
2022-10-03T09:31:24.879Z,8.23
2022-10-03T09:34:21.811Z,6.95
2022-10-03T09:37:13.380Z,7.80
2022-10-03T09:43:03.031Z,5.55
2022-10-03T09:46:08.394Z,4.30
2022-10-03T09:49:33.033Z,6.25
2022-10-03T09:52:15.456Z,3.88
2022-10-03T09:55:03.089Z,2.75
2022-10-03T09:57:59.518Z,3.33
2022-10-03T10:00:29.476Z,2.50
2022-10-03T10:03:17.674Z,2.35
2022-10-03T10:06:05.324Z,2.45
2022-10-03T10:09:00.512Z,1.83
2022-10-03T10:11:51.626Z,2.78
2022-10-03T10:14:41.535Z,2.38
2022-10-03T10:17:29.352Z,2.60
2022-10-03T10:20:00.761Z,2.30
2022-10-03T10:22:58.586Z,2.50
2022-10-03T10:26:07.371Z,2.42
2022-10-03T10:32:08.382Z,2.00
2022-10-03T10:35:03.397Z,1.90
2022-10-03T10:38:04.192Z,2.08
2022-10-03T10:44:23.927Z,2.25
2022-10-03T10:47:22.981Z,1.80
2022-10-03T10:50:29.388Z,1.52
2022-10-03T10:53:52.455Z,1.80
2022-10-03T10:56:58.365Z,1.30
2022-10-03T10:59:50.956Z,1.40
2022-10-03T11:02:54.797Z,1.25
2022-10-03T11:05:48.067Z,1.23
2022-10-03T11:08:37.548Z,1.40
2022-10-03T11:11:37.969Z,1.60
2022-10-03T11:14:28.330Z,1.45
2022-10-03T11:17:24.008Z,1.67
2022-10-03T11:20:19.571Z,1.30
2022-10-03T11:23:06.721Z,1.45
2022-10-03T11:25:59.582Z,1.15
2022-10-03T11:29:00.081Z,0.73
2022-10-03T11:31:49.222Z,0.85
2022-10-03T11:34:38.590Z,1.10
2022-10-03T11:37:14.910Z,1.10
2022-10-03T11:39:48.679Z,1.15
2022-10-03T11:45:12.306Z,1.00
2022-10-03T11:48:01.569Z,1.08
2022-10-03T11:50:36.624Z,1.25
2022-10-03T11:53:23.882Z,1.23
2022-10-03T11:55:55.146Z,1.25
2022-10-03T11:58:35.914Z,1.10
2022-10-03T12:01:21.024Z,0.80
2022-10-03T12:03:53.536Z,0.80
2022-10-03T12:06:50.621Z,0.90
2022-10-03T12:09:21.328Z,0.70
2022-10-03T12:11:57.142Z,0.88
2022-10-03T12:14:30.692Z,0.70
2022-10-03T12:17:16.088Z,0.57
2022-10-03T12:20:04.562Z,1.13
2022-10-03T12:25:32.175Z,0.70
2022-10-03T12:28:03.820Z,0.80
2022-10-03T12:30:37.025Z,1.67
2022-10-03T12:33:22.042Z,1.80
2022-10-03T12:35:53.391Z,1.30
2022-10-03T12:38:25.888Z,1.20
2022-10-03T12:41:02.634Z,1.02
2022-10-03T12:43:38.382Z,1.40
2022-10-03T12:46:11.160Z,2.85
2022-10-03T12:48:48.037Z,0.87
2022-10-03T12:51:21.877Z,1.00
2022-10-03T12:54:03.927Z,0.90
2022-10-03T12:56:37.367Z,1.00
2022-10-03T12:59:14.824Z,1.83
2022-10-03T13:02:04.147Z,1.15
2022-10-03T13:04:37.586Z,1.02
2022-10-03T13:07:17.176Z,0.90
2022-10-03T13:09:57.984Z,0.70
2022-10-03T13:12:31.376Z,1.42
2022-10-03T13:15:18.928Z,0.80
2022-10-03T13:17:52.975Z,0.80
2022-10-03T13:20:25.948Z,0.70
2022-10-03T13:23:03.270Z,0.60
2022-10-03T13:25:36.588Z,0.70
2022-10-03T13:28:11.037Z,0.88
2022-10-03T13:30:45.127Z,1.20
2022-10-03T13:33:17.701Z,0.80
2022-10-03T13:36:02.962Z,1.00
2022-10-03T13:38:55.263Z,0.93
2022-10-03T13:41:26.511Z,1.00
2022-10-03T13:43:59.321Z,2.65
2022-10-03T13:46:31.388Z,0.70
2022-10-03T13:49:02.277Z,2.40
2022-10-03T13:51:36.992Z,2.10
2022-10-03T13:54:08.612Z,1.00
2022-10-03T13:56:43.494Z,0.77
2022-10-03T13:59:17.311Z,1.10
2022-10-03T14:01:52.701Z,1.17
2022-10-03T14:04:38.867Z,1.35
2022-10-03T14:07:12.772Z,0.90
2022-10-03T14:09:49.242Z,1.02
2022-10-03T14:12:33.160Z,5.68
2022-10-03T14:15:19.201Z,6.28
2022-10-03T14:17:54.472Z,3.28
2022-10-03T14:20:26.985Z,5.28
2022-10-03T14:23:01.970Z,2.30
2022-10-03T14:25:32.847Z,2.30
2022-10-03T14:28:04.516Z,1.30
2022-10-03T14:30:53.130Z,1.05
2022-10-03T14:33:34.883Z,4.03
2022-10-03T14:36:09.268Z,1.00
2022-10-03T14:39:02.337Z,1.35
2022-10-03T14:41:42.841Z,1.25
2022-10-03T14:44:13.659Z,0.77
2022-10-03T14:46:45.684Z,1.40
2022-10-03T14:49:40.147Z,0.90
2022-10-03T14:52:09.886Z,0.87
2022-10-03T14:54:42.853Z,1.38
2022-10-03T14:57:24.298Z,1.20
2022-10-03T14:59:58.037Z,0.90
2022-10-03T15:04:56.653Z,1.00
2022-10-03T15:07:36.004Z,1.20
2022-10-03T15:10:08.086Z,0.85
2022-10-03T15:12:38.560Z,1.30
2022-10-03T15:15:09.282Z,1.02
2022-10-03T15:17:45.465Z,1.50
2022-10-03T15:20:14.955Z,3.50
2022-10-03T15:22:48.885Z,16.08
2022-10-03T15:25:20.033Z,1.98
2022-10-03T15:27:51.115Z,1.85
2022-10-03T15:30:27.883Z,1.70
2022-10-03T15:33:07.344Z,3.33
2022-10-03T15:35:39.252Z,7.97
2022-10-03T15:38:12.895Z,2.50
2022-10-03T15:43:20.131Z,6.60
2022-10-03T15:45:48.691Z,3.65
2022-10-03T15:48:18.551Z,2.60
2022-10-03T15:50:51.607Z,2.65
2022-10-03T15:53:38.335Z,2.83
2022-10-03T15:56:11.323Z,3.50
2022-10-03T15:58:45.858Z,4.15
2022-10-03T16:01:17.202Z,3.78
2022-10-03T16:03:47.741Z,4.13
2022-10-03T16:06:21.056Z,2.88
2022-10-03T16:08:56.661Z,3.22
2022-10-03T16:11:27.217Z,2.75
2022-10-03T16:14:03.914Z,1.80
2022-10-03T16:16:37.594Z,1.60
2022-10-03T16:21:40.511Z,1.67
2022-10-03T16:24:17.306Z,1.70
2022-10-03T16:26:50.299Z,1.70
2022-10-03T16:29:22.144Z,1.73
2022-10-03T16:31:53.649Z,1.40
2022-10-03T16:34:25.489Z,1.30
2022-10-03T16:36:54.085Z,1.60
2022-10-03T16:39:24.882Z,1.67
2022-10-03T16:41:55.410Z,1.33
2022-10-03T16:44:31.155Z,1.77
2022-10-03T16:47:03.167Z,1.75
2022-10-03T16:49:58.313Z,2.42
2022-10-03T16:52:31.724Z,2.80
2022-10-03T16:55:02.857Z,3.90
2022-10-03T16:57:34.027Z,2.83
2022-10-03T17:00:07.949Z,2.38
2022-10-03T17:02:39.992Z,2.00
2022-10-03T17:05:09.793Z,1.90
2022-10-03T17:07:40.569Z,1.60
2022-10-03T17:10:22.531Z,1.90
2022-10-03T17:12:53.315Z,2.08
2022-10-03T17:15:24.429Z,2.30
2022-10-03T17:17:57.374Z,1.98
2022-10-03T17:20:36.666Z,2.15
2022-10-03T17:23:06.567Z,2.63
2022-10-03T17:25:41.308Z,3.00
2022-10-03T17:28:14.174Z,2.95
2022-10-03T17:30:47.817Z,2.70
2022-10-03T17:33:18.750Z,2.50
2022-10-03T17:35:51.446Z,2.40
2022-10-03T17:41:19.695Z,2.58
2022-10-03T17:43:50.890Z,2.75
2022-10-03T17:46:25.659Z,3.50
2022-10-03T17:52:19.143Z,3.92
2022-10-03T17:54:48.914Z,3.28
2022-10-03T17:57:19.629Z,3.30
2022-10-03T17:59:52.495Z,3.17
2022-10-03T18:02:26.502Z,2.93
2022-10-03T18:04:59.235Z,2.88
2022-10-03T18:07:29.909Z,2.63
2022-10-03T18:09:58.464Z,2.85
2022-10-03T18:12:31.477Z,3.05
2022-10-03T18:15:24.154Z,6.28
2022-10-03T18:18:01.336Z,4.22
2022-10-03T18:20:38.900Z,3.55
2022-10-03T18:23:09.150Z,3.63
2022-10-03T18:26:19.264Z,3.65
2022-10-03T18:28:52.685Z,3.53
2022-10-03T18:31:22.008Z,3.25
2022-10-03T18:33:55.399Z,3.72
2022-10-03T18:36:24.691Z,4.13
2022-10-03T18:38:56.387Z,4.28
2022-10-03T18:41:25.916Z,3.72
2022-10-03T18:43:58.750Z,3.58
2022-10-03T18:46:29.978Z,3.07
2022-10-03T18:49:32.820Z,2.88
2022-10-03T18:51:52.916Z,2.60
2022-10-03T18:54:25.684Z,2.60
2022-10-03T18:57:05.625Z,2.40
2022-10-03T18:59:37.456Z,2.50
2022-10-03T19:02:06.306Z,2.60
2022-10-03T19:04:38.696Z,2.67
2022-10-03T19:07:14.889Z,2.90
2022-10-03T19:09:50.344Z,3.00
2022-10-03T19:12:20.726Z,2.80
2022-10-03T19:14:57.314Z,2.78
2022-10-03T19:17:30.915Z,2.80
2022-10-03T19:20:04.082Z,3.00
2022-10-03T19:22:33.702Z,2.63
2022-10-03T19:25:04.173Z,2.95
2022-10-03T19:27:43.365Z,2.92
2022-10-03T19:30:13.750Z,3.55
2022-10-03T19:32:49.299Z,3.13
2022-10-03T19:35:21.860Z,3.90
2022-10-03T19:37:51.927Z,3.70
2022-10-03T19:40:42.479Z,3.50
2022-10-03T19:43:30.111Z,3.80
2022-10-03T19:46:05.484Z,3.72
2022-10-03T19:48:35.796Z,3.30
2022-10-03T19:51:15.403Z,4.20
2022-10-03T19:56:17.563Z,4.25
2022-10-03T19:58:47.102Z,4.18
2022-10-03T20:01:16.582Z,4.50
2022-10-03T20:03:47.563Z,3.78
2022-10-03T20:06:19.997Z,4.22
2022-10-03T20:08:50.925Z,5.00
2022-10-03T20:11:24.646Z,7.30
2022-10-03T20:13:53.078Z,7.40
2022-10-03T20:16:22.641Z,8.60
2022-10-03T20:18:52.287Z,7.32
2022-10-03T20:21:23.253Z,8.10
2022-10-03T20:23:51.754Z,6.30
2022-10-03T20:26:23.440Z,6.72
2022-10-03T20:29:06.691Z,6.60
2022-10-03T20:31:35.462Z,3.80
2022-10-03T20:34:05.837Z,4.88
2022-10-03T20:36:37.496Z,4.88
2022-10-03T20:39:11.820Z,5.65
2022-10-03T20:41:47.617Z,4.90
2022-10-03T20:44:19.642Z,5.00
2022-10-03T20:46:50.057Z,4.45
2022-10-03T20:49:25.913Z,5.03
2022-10-03T20:52:00.139Z,5.25
2022-10-03T20:54:30.676Z,6.00
2022-10-03T20:57:00.194Z,5.47
2022-10-03T20:59:31.107Z,5.20
2022-10-03T21:02:00.569Z,4.88
2022-10-03T21:04:32.058Z,5.90
2022-10-03T21:07:05.270Z,6.47
2022-10-03T21:09:42.335Z,5.88
2022-10-03T21:12:16.828Z,5.75
2022-10-03T21:14:46.729Z,6.10
2022-10-03T21:17:16.413Z,8.40
2022-10-03T21:19:47.703Z,8.43
2022-10-03T21:22:20.744Z,9.68
2022-10-03T21:24:54.168Z,9.35
2022-10-03T21:27:23.258Z,9.73
2022-10-03T21:29:56.335Z,8.35
2022-10-03T21:32:39.568Z,7.93
2022-10-03T21:35:13.701Z,8.17
2022-10-03T21:37:46.217Z,7.85
2022-10-03T21:40:19.977Z,7.60
2022-10-03T21:42:54.036Z,7.32
2022-10-03T21:45:31.806Z,7.05
2022-10-03T21:48:02.754Z,7.28
2022-10-03T21:50:31.936Z,7.05
2022-10-03T21:53:11.286Z,6.75
2022-10-03T21:55:55.627Z,5.22
2022-10-03T21:58:39.981Z,5.32
2022-10-03T22:01:14.136Z,5.55
2022-10-03T22:03:47.194Z,6.30
2022-10-03T22:06:20.099Z,6.03
2022-10-03T22:08:51.352Z,6.27
2022-10-03T22:11:24.513Z,5.60
2022-10-03T22:13:58.486Z,10.00
2022-10-03T22:16:29.971Z,9.30
2022-10-03T22:19:04.889Z,8.35
2022-10-03T22:21:38.252Z,6.57
2022-10-03T22:24:12.916Z,5.95
2022-10-03T22:26:44.879Z,5.93
2022-10-03T22:29:22.835Z,6.30
2022-10-03T22:31:55.786Z,6.28
2022-10-03T22:34:32.430Z,6.50
2022-10-03T22:37:00.931Z,5.90
2022-10-03T22:39:31.124Z,5.80
2022-10-03T22:42:02.160Z,5.43
2022-10-03T22:44:32.566Z,5.13
2022-10-03T22:47:04.010Z,5.20
2022-10-03T22:49:34.903Z,5.20
2022-10-03T22:52:04.889Z,5.03
2022-10-03T22:54:36.369Z,5.88
2022-10-03T22:57:07.159Z,5.75
2022-10-03T22:59:36.500Z,5.50
2022-10-03T23:02:06.953Z,6.28
2022-10-03T23:04:37.685Z,5.45
2022-10-03T23:07:20.945Z,5.47
2022-10-03T23:09:55.201Z,5.60
2022-10-03T23:12:24.853Z,3.85
2022-10-03T23:14:55.224Z,3.90
2022-10-03T23:17:29.327Z,3.90
2022-10-03T23:20:01.429Z,3.67
2022-10-03T23:22:31.245Z,4.30
2022-10-03T23:25:03.425Z,4.38
2022-10-03T23:27:38.410Z,5.32
2022-10-03T23:30:25.655Z,5.75
2022-10-03T23:32:55.349Z,6.90
2022-10-03T23:35:37.361Z,6.35
2022-10-03T23:38:26.615Z,5.30
2022-10-03T23:40:57.960Z,5.20
2022-10-03T23:43:35.288Z,4.90
2022-10-03T23:46:05.311Z,5.60
2022-10-03T23:48:41.518Z,5.03
2022-10-03T23:51:12.043Z,4.72
2022-10-03T23:53:41.892Z,5.40
2022-10-03T23:56:28.275Z,4.88
2022-10-03T23:58:58.545Z,4.65
